sensor_id;sensor_type;location;lat;lon;timestamp;P1;durP1;ratioP1;P2;durP2;ratioP2
75506;SDS011;64086;43.220;27.878;2023-04-06T00:00:18;13.05;;;8.82;;
75506;SDS011;64086;43.220;27.878;2023-04-06T00:02:43;12.43;;;9.02;;
75506;SDS011;64086;43.220;27.878;2023-04-06T00:05:09;12.20;;;8.88;;
75506;SDS011;64086;43.220;27.878;2023-04-06T00:07:35;10.20;;;8.30;;
75506;SDS011;64086;43.220;27.878;2023-04-06T00:10:00;11.80;;;8.38;;
75506;SDS011;64086;43.220;27.878;2023-04-06T00:12:26;11.20;;;8.52;;
75506;SDS011;64086;43.220;27.878;2023-04-06T00:14:52;10.43;;;8.00;;
75506;SDS011;64086;43.220;27.878;2023-04-06T00:17:17;12.75;;;8.75;;
75506;SDS011;64086;43.220;27.878;2023-04-06T00:19:43;11.00;;;8.48;;
75506;SDS011;64086;43.220;27.878;2023-04-06T00:22:08;11.60;;;8.30;;
75506;SDS011;64086;43.220;27.878;2023-04-06T00:24:34;10.25;;;8.20;;
75506;SDS011;64086;43.220;27.878;2023-04-06T00:27:00;11.23;;;8.45;;
75506;SDS011;64086;43.220;27.878;2023-04-06T00:29:26;10.95;;;8.88;;
75506;SDS011;64086;43.220;27.878;2023-04-06T00:31:51;13.68;;;9.13;;
75506;SDS011;64086;43.220;27.878;2023-04-06T00:34:17;11.55;;;8.98;;
75506;SDS011;64086;43.220;27.878;2023-04-06T00:36:42;11.77;;;9.15;;
75506;SDS011;64086;43.220;27.878;2023-04-06T00:39:08;11.73;;;9.18;;
75506;SDS011;64086;43.220;27.878;2023-04-06T00:41:33;12.63;;;8.68;;
75506;SDS011;64086;43.220;27.878;2023-04-06T00:43:59;12.00;;;9.13;;
75506;SDS011;64086;43.220;27.878;2023-04-06T00:46:24;13.45;;;8.70;;
75506;SDS011;64086;43.220;27.878;2023-04-06T00:48:50;14.13;;;9.50;;
75506;SDS011;64086;43.220;27.878;2023-04-06T00:51:15;10.68;;;7.93;;
75506;SDS011;64086;43.220;27.878;2023-04-06T00:53:41;9.70;;;7.80;;
75506;SDS011;64086;43.220;27.878;2023-04-06T00:56:06;11.98;;;8.77;;
75506;SDS011;64086;43.220;27.878;2023-04-06T00:58:34;10.55;;;7.88;;
75506;SDS011;64086;43.220;27.878;2023-04-06T01:01:03;9.75;;;7.50;;
75506;SDS011;64086;43.220;27.878;2023-04-06T01:03:28;9.77;;;7.93;;
75506;SDS011;64086;43.220;27.878;2023-04-06T01:05:54;12.73;;;7.50;;
75506;SDS011;64086;43.220;27.878;2023-04-06T01:08:23;9.52;;;7.60;;
75506;SDS011;64086;43.220;27.878;2023-04-06T01:10:49;10.45;;;7.20;;
75506;SDS011;64086;43.220;27.878;2023-04-06T01:13:15;9.52;;;6.70;;
75506;SDS011;64086;43.220;27.878;2023-04-06T01:15:41;8.63;;;6.88;;
75506;SDS011;64086;43.220;27.878;2023-04-06T01:18:10;7.90;;;6.70;;
75506;SDS011;64086;43.220;27.878;2023-04-06T01:20:35;8.90;;;7.03;;
75506;SDS011;64086;43.220;27.878;2023-04-06T01:23:01;8.20;;;6.80;;
75506;SDS011;64086;43.220;27.878;2023-04-06T01:25:27;8.88;;;6.85;;
75506;SDS011;64086;43.220;27.878;2023-04-06T01:27:52;8.00;;;6.63;;
75506;SDS011;64086;43.220;27.878;2023-04-06T01:30:18;9.38;;;7.00;;
75506;SDS011;64086;43.220;27.878;2023-04-06T01:32:44;9.27;;;6.88;;
75506;SDS011;64086;43.220;27.878;2023-04-06T01:35:10;7.68;;;6.50;;
75506;SDS011;64086;43.220;27.878;2023-04-06T01:37:35;8.98;;;6.28;;
75506;SDS011;64086;43.220;27.878;2023-04-06T01:40:01;8.00;;;6.53;;
75506;SDS011;64086;43.220;27.878;2023-04-06T01:42:26;7.82;;;6.78;;
75506;SDS011;64086;43.220;27.878;2023-04-06T01:44:53;11.15;;;6.53;;
75506;SDS011;64086;43.220;27.878;2023-04-06T01:47:18;8.57;;;6.70;;
75506;SDS011;64086;43.220;27.878;2023-04-06T01:49:44;8.15;;;6.93;;
75506;SDS011;64086;43.220;27.878;2023-04-06T01:52:09;8.45;;;6.32;;
75506;SDS011;64086;43.220;27.878;2023-04-06T01:54:35;7.97;;;6.80;;
75506;SDS011;64086;43.220;27.878;2023-04-06T01:57:00;8.27;;;7.00;;
75506;SDS011;64086;43.220;27.878;2023-04-06T01:59:25;7.97;;;6.20;;
75506;SDS011;64086;43.220;27.878;2023-04-06T02:01:51;8.25;;;6.82;;
75506;SDS011;64086;43.220;27.878;2023-04-06T02:04:16;9.27;;;7.25;;
75506;SDS011;64086;43.220;27.878;2023-04-06T02:06:42;8.63;;;7.00;;
75506;SDS011;64086;43.220;27.878;2023-04-06T02:09:07;7.05;;;6.20;;
75506;SDS011;64086;43.220;27.878;2023-04-06T02:11:33;8.68;;;7.38;;
75506;SDS011;64086;43.220;27.878;2023-04-06T02:13:58;11.60;;;7.05;;
75506;SDS011;64086;43.220;27.878;2023-04-06T02:16:25;10.35;;;7.55;;
75506;SDS011;64086;43.220;27.878;2023-04-06T02:18:51;8.65;;;7.03;;
75506;SDS011;64086;43.220;27.878;2023-04-06T02:21:16;7.70;;;6.68;;
75506;SDS011;64086;43.220;27.878;2023-04-06T02:23:45;8.32;;;6.97;;
75506;SDS011;64086;43.220;27.878;2023-04-06T02:26:14;9.63;;;7.28;;
75506;SDS011;64086;43.220;27.878;2023-04-06T02:28:40;8.25;;;6.55;;
75506;SDS011;64086;43.220;27.878;2023-04-06T02:31:06;12.20;;;7.38;;
75506;SDS011;64086;43.220;27.878;2023-04-06T02:33:32;9.05;;;7.60;;
75506;SDS011;64086;43.220;27.878;2023-04-06T02:35:57;8.80;;;6.35;;
75506;SDS011;64086;43.220;27.878;2023-04-06T02:38:23;7.93;;;7.07;;
75506;SDS011;64086;43.220;27.878;2023-04-06T02:40:48;9.70;;;7.15;;
75506;SDS011;64086;43.220;27.878;2023-04-06T02:43:14;9.90;;;6.95;;
75506;SDS011;64086;43.220;27.878;2023-04-06T02:45:41;9.32;;;7.25;;
75506;SDS011;64086;43.220;27.878;2023-04-06T02:48:07;9.05;;;7.07;;
75506;SDS011;64086;43.220;27.878;2023-04-06T02:50:32;8.75;;;6.90;;
75506;SDS011;64086;43.220;27.878;2023-04-06T02:52:58;9.07;;;7.47;;
75506;SDS011;64086;43.220;27.878;2023-04-06T02:55:23;10.00;;;7.60;;
75506;SDS011;64086;43.220;27.878;2023-04-06T02:57:49;8.25;;;7.07;;
75506;SDS011;64086;43.220;27.878;2023-04-06T03:00:14;9.77;;;7.30;;
75506;SDS011;64086;43.220;27.878;2023-04-06T03:02:40;8.50;;;7.10;;
75506;SDS011;64086;43.220;27.878;2023-04-06T03:05:06;8.82;;;7.22;;
75506;SDS011;64086;43.220;27.878;2023-04-06T03:07:31;9.18;;;7.28;;
75506;SDS011;64086;43.220;27.878;2023-04-06T03:09:57;9.43;;;7.28;;
75506;SDS011;64086;43.220;27.878;2023-04-06T03:12:22;9.90;;;8.13;;
75506;SDS011;64086;43.220;27.878;2023-04-06T03:14:48;10.23;;;8.57;;
75506;SDS011;64086;43.220;27.878;2023-04-06T03:17:13;9.95;;;7.72;;
75506;SDS011;64086;43.220;27.878;2023-04-06T03:19:39;9.32;;;7.90;;
75506;SDS011;64086;43.220;27.878;2023-04-06T03:22:04;11.45;;;7.78;;
75506;SDS011;64086;43.220;27.878;2023-04-06T03:24:30;8.30;;;7.40;;
75506;SDS011;64086;43.220;27.878;2023-04-06T03:26:55;11.48;;;8.10;;
75506;SDS011;64086;43.220;27.878;2023-04-06T03:29:21;10.05;;;8.48;;
75506;SDS011;64086;43.220;27.878;2023-04-06T03:31:46;9.73;;;7.82;;
75506;SDS011;64086;43.220;27.878;2023-04-06T03:34:12;10.00;;;8.13;;
75506;SDS011;64086;43.220;27.878;2023-04-06T03:36:38;10.40;;;8.35;;
75506;SDS011;64086;43.220;27.878;2023-04-06T03:39:03;10.65;;;8.25;;
75506;SDS011;64086;43.220;27.878;2023-04-06T03:41:29;10.27;;;7.93;;
75506;SDS011;64086;43.220;27.878;2023-04-06T03:43:54;11.48;;;8.70;;
75506;SDS011;64086;43.220;27.878;2023-04-06T03:46:20;11.15;;;8.35;;
75506;SDS011;64086;43.220;27.878;2023-04-06T03:48:47;15.30;;;10.65;;
75506;SDS011;64086;43.220;27.878;2023-04-06T03:51:13;14.13;;;10.82;;
75506;SDS011;64086;43.220;27.878;2023-04-06T03:53:38;14.20;;;11.68;;
75506;SDS011;64086;43.220;27.878;2023-04-06T03:56:04;12.98;;;10.98;;
75506;SDS011;64086;43.220;27.878;2023-04-06T03:58:30;12.60;;;10.40;;
75506;SDS011;64086;43.220;27.878;2023-04-06T04:00:56;11.65;;;10.07;;
75506;SDS011;64086;43.220;27.878;2023-04-06T04:03:21;12.10;;;9.45;;
75506;SDS011;64086;43.220;27.878;2023-04-06T04:05:48;12.10;;;9.32;;
75506;SDS011;64086;43.220;27.878;2023-04-06T04:08:15;12.60;;;9.75;;
75506;SDS011;64086;43.220;27.878;2023-04-06T04:10:40;12.80;;;9.02;;
75506;SDS011;64086;43.220;27.878;2023-04-06T04:13:06;11.10;;;9.30;;
75506;SDS011;64086;43.220;27.878;2023-04-06T04:15:31;12.95;;;8.90;;
75506;SDS011;64086;43.220;27.878;2023-04-06T04:17:57;13.13;;;9.30;;
75506;SDS011;64086;43.220;27.878;2023-04-06T04:20:22;11.63;;;9.27;;
75506;SDS011;64086;43.220;27.878;2023-04-06T04:22:48;11.60;;;9.73;;
75506;SDS011;64086;43.220;27.878;2023-04-06T04:25:13;11.20;;;9.52;;
75506;SDS011;64086;43.220;27.878;2023-04-06T04:27:39;10.98;;;9.77;;
75506;SDS011;64086;43.220;27.878;2023-04-06T04:30:05;10.35;;;8.68;;
75506;SDS011;64086;43.220;27.878;2023-04-06T04:32:31;12.27;;;9.27;;
75506;SDS011;64086;43.220;27.878;2023-04-06T04:34:56;13.32;;;10.02;;
75506;SDS011;64086;43.220;27.878;2023-04-06T04:37:22;12.82;;;10.32;;
75506;SDS011;64086;43.220;27.878;2023-04-06T04:39:47;13.90;;;9.93;;
75506;SDS011;64086;43.220;27.878;2023-04-06T04:42:13;12.52;;;9.93;;
75506;SDS011;64086;43.220;27.878;2023-04-06T04:44:38;11.88;;;10.05;;
75506;SDS011;64086;43.220;27.878;2023-04-06T04:47:04;12.57;;;10.07;;
75506;SDS011;64086;43.220;27.878;2023-04-06T04:49:30;11.63;;;9.55;;
75506;SDS011;64086;43.220;27.878;2023-04-06T04:51:55;13.48;;;10.05;;
75506;SDS011;64086;43.220;27.878;2023-04-06T04:54:21;13.50;;;10.00;;
75506;SDS011;64086;43.220;27.878;2023-04-06T04:56:46;11.63;;;9.57;;
75506;SDS011;64086;43.220;27.878;2023-04-06T04:59:12;12.30;;;9.70;;
75506;SDS011;64086;43.220;27.878;2023-04-06T05:01:37;12.65;;;9.45;;
75506;SDS011;64086;43.220;27.878;2023-04-06T05:04:03;14.52;;;10.27;;
75506;SDS011;64086;43.220;27.878;2023-04-06T05:06:28;14.23;;;9.73;;
75506;SDS011;64086;43.220;27.878;2023-04-06T05:08:54;11.82;;;9.25;;
75506;SDS011;64086;43.220;27.878;2023-04-06T05:11:20;12.50;;;10.20;;
75506;SDS011;64086;43.220;27.878;2023-04-06T05:13:46;12.13;;;8.95;;
75506;SDS011;64086;43.220;27.878;2023-04-06T05:16:11;14.25;;;10.40;;
75506;SDS011;64086;43.220;27.878;2023-04-06T05:18:37;11.20;;;9.85;;
75506;SDS011;64086;43.220;27.878;2023-04-06T05:21:02;12.88;;;9.45;;
75506;SDS011;64086;43.220;27.878;2023-04-06T05:23:28;13.77;;;9.65;;
75506;SDS011;64086;43.220;27.878;2023-04-06T05:25:53;12.27;;;10.00;;
75506;SDS011;64086;43.220;27.878;2023-04-06T05:28:19;13.75;;;10.52;;
75506;SDS011;64086;43.220;27.878;2023-04-06T05:30:45;13.60;;;9.88;;
75506;SDS011;64086;43.220;27.878;2023-04-06T05:33:11;12.77;;;10.02;;
75506;SDS011;64086;43.220;27.878;2023-04-06T05:35:37;12.20;;;10.00;;
75506;SDS011;64086;43.220;27.878;2023-04-06T05:38:02;12.63;;;9.15;;
75506;SDS011;64086;43.220;27.878;2023-04-06T05:40:28;13.07;;;9.80;;
75506;SDS011;64086;43.220;27.878;2023-04-06T05:42:53;13.30;;;9.73;;
75506;SDS011;64086;43.220;27.878;2023-04-06T05:45:19;10.98;;;9.88;;
75506;SDS011;64086;43.220;27.878;2023-04-06T05:47:46;14.25;;;9.85;;
75506;SDS011;64086;43.220;27.878;2023-04-06T05:50:12;11.25;;;9.30;;
75506;SDS011;64086;43.220;27.878;2023-04-06T05:52:38;11.57;;;8.80;;
75506;SDS011;64086;43.220;27.878;2023-04-06T05:55:06;11.07;;;9.18;;
75506;SDS011;64086;43.220;27.878;2023-04-06T05:57:32;11.85;;;9.48;;
75506;SDS011;64086;43.220;27.878;2023-04-06T05:59:57;10.70;;;9.35;;
75506;SDS011;64086;43.220;27.878;2023-04-06T06:02:23;13.65;;;9.98;;
75506;SDS011;64086;43.220;27.878;2023-04-06T06:04:50;14.55;;;10.35;;
75506;SDS011;64086;43.220;27.878;2023-04-06T06:07:15;15.15;;;10.25;;
75506;SDS011;64086;43.220;27.878;2023-04-06T06:09:40;13.30;;;9.80;;
75506;SDS011;64086;43.220;27.878;2023-04-06T06:12:06;13.75;;;10.27;;
75506;SDS011;64086;43.220;27.878;2023-04-06T06:14:32;13.75;;;10.48;;
75506;SDS011;64086;43.220;27.878;2023-04-06T06:16:58;15.88;;;11.82;;
75506;SDS011;64086;43.220;27.878;2023-04-06T06:19:23;15.18;;;11.75;;
75506;SDS011;64086;43.220;27.878;2023-04-06T06:21:49;14.52;;;11.45;;
75506;SDS011;64086;43.220;27.878;2023-04-06T06:24:15;14.68;;;11.80;;
75506;SDS011;64086;43.220;27.878;2023-04-06T06:26:40;16.90;;;12.18;;
75506;SDS011;64086;43.220;27.878;2023-04-06T06:29:06;13.90;;;11.75;;
75506;SDS011;64086;43.220;27.878;2023-04-06T06:31:32;14.02;;;11.20;;
75506;SDS011;64086;43.220;27.878;2023-04-06T06:33:58;15.00;;;11.43;;
75506;SDS011;64086;43.220;27.878;2023-04-06T06:36:23;16.15;;;11.32;;
75506;SDS011;64086;43.220;27.878;2023-04-06T06:38:50;14.15;;;11.02;;
75506;SDS011;64086;43.220;27.878;2023-04-06T06:41:16;15.77;;;10.80;;
75506;SDS011;64086;43.220;27.878;2023-04-06T06:43:41;14.43;;;10.50;;
75506;SDS011;64086;43.220;27.878;2023-04-06T06:46:07;14.10;;;10.32;;
75506;SDS011;64086;43.220;27.878;2023-04-06T06:48:32;14.85;;;11.50;;
75506;SDS011;64086;43.220;27.878;2023-04-06T06:50:58;14.02;;;11.30;;
75506;SDS011;64086;43.220;27.878;2023-04-06T06:53:23;13.50;;;10.27;;
75506;SDS011;64086;43.220;27.878;2023-04-06T06:55:49;14.48;;;10.80;;
75506;SDS011;64086;43.220;27.878;2023-04-06T06:58:18;13.68;;;11.60;;
75506;SDS011;64086;43.220;27.878;2023-04-06T07:00:45;13.18;;;11.05;;
75506;SDS011;64086;43.220;27.878;2023-04-06T07:03:10;15.57;;;10.40;;
75506;SDS011;64086;43.220;27.878;2023-04-06T07:05:36;12.55;;;10.00;;
75506;SDS011;64086;43.220;27.878;2023-04-06T07:08:02;11.43;;;9.95;;
75506;SDS011;64086;43.220;27.878;2023-04-06T07:10:27;12.98;;;10.68;;
75506;SDS011;64086;43.220;27.878;2023-04-06T07:12:53;12.05;;;9.90;;
75506;SDS011;64086;43.220;27.878;2023-04-06T07:15:18;13.35;;;10.50;;
75506;SDS011;64086;43.220;27.878;2023-04-06T07:17:44;10.68;;;9.57;;
75506;SDS011;64086;43.220;27.878;2023-04-06T07:20:10;14.30;;;11.55;;
75506;SDS011;64086;43.220;27.878;2023-04-06T07:22:37;12.43;;;10.93;;
75506;SDS011;64086;43.220;27.878;2023-04-06T07:25:13;13.30;;;10.60;;
75506;SDS011;64086;43.220;27.878;2023-04-06T07:27:38;11.75;;;10.18;;
75506;SDS011;64086;43.220;27.878;2023-04-06T07:30:04;10.45;;;9.25;;
75506;SDS011;64086;43.220;27.878;2023-04-06T07:32:30;10.25;;;9.27;;
75506;SDS011;64086;43.220;27.878;2023-04-06T07:34:56;9.82;;;8.85;;
75506;SDS011;64086;43.220;27.878;2023-04-06T07:37:22;11.48;;;9.52;;
75506;SDS011;64086;43.220;27.878;2023-04-06T07:39:47;9.40;;;8.20;;
75506;SDS011;64086;43.220;27.878;2023-04-06T07:42:12;9.77;;;8.82;;
75506;SDS011;64086;43.220;27.878;2023-04-06T07:44:38;11.48;;;10.32;;
75506;SDS011;64086;43.220;27.878;2023-04-06T07:47:03;10.45;;;9.45;;
75506;SDS011;64086;43.220;27.878;2023-04-06T07:49:29;11.23;;;10.13;;
75506;SDS011;64086;43.220;27.878;2023-04-06T07:51:55;11.02;;;9.93;;
75506;SDS011;64086;43.220;27.878;2023-04-06T07:54:21;11.88;;;9.82;;
75506;SDS011;64086;43.220;27.878;2023-04-06T07:56:46;11.75;;;10.65;;
75506;SDS011;64086;43.220;27.878;2023-04-06T07:59:12;11.85;;;10.63;;
75506;SDS011;64086;43.220;27.878;2023-04-06T08:01:38;11.18;;;10.05;;
75506;SDS011;64086;43.220;27.878;2023-04-06T08:04:04;11.90;;;10.73;;
75506;SDS011;64086;43.220;27.878;2023-04-06T08:06:30;10.50;;;9.52;;
75506;SDS011;64086;43.220;27.878;2023-04-06T08:08:55;10.85;;;9.75;;
75506;SDS011;64086;43.220;27.878;2023-04-06T08:11:21;9.90;;;8.90;;
75506;SDS011;64086;43.220;27.878;2023-04-06T08:13:46;10.38;;;9.20;;
75506;SDS011;64086;43.220;27.878;2023-04-06T08:16:12;9.80;;;9.00;;
75506;SDS011;64086;43.220;27.878;2023-04-06T08:18:37;9.43;;;8.63;;
75506;SDS011;64086;43.220;27.878;2023-04-06T08:21:03;9.55;;;8.65;;
75506;SDS011;64086;43.220;27.878;2023-04-06T08:23:28;9.35;;;8.50;;
75506;SDS011;64086;43.220;27.878;2023-04-06T08:25:54;10.13;;;8.45;;
75506;SDS011;64086;43.220;27.878;2023-04-06T08:28:20;8.38;;;7.68;;
75506;SDS011;64086;43.220;27.878;2023-04-06T08:30:46;10.00;;;8.20;;
75506;SDS011;64086;43.220;27.878;2023-04-06T08:33:11;10.05;;;9.02;;
75506;SDS011;64086;43.220;27.878;2023-04-06T08:35:37;10.52;;;9.52;;
75506;SDS011;64086;43.220;27.878;2023-04-06T08:38:02;10.13;;;7.65;;
75506;SDS011;64086;43.220;27.878;2023-04-06T08:40:28;10.48;;;7.43;;
75506;SDS011;64086;43.220;27.878;2023-04-06T08:42:56;14.93;;;8.73;;
75506;SDS011;64086;43.220;27.878;2023-04-06T08:45:27;9.35;;;8.38;;
75506;SDS011;64086;43.220;27.878;2023-04-06T08:47:52;9.32;;;8.32;;
75506;SDS011;64086;43.220;27.878;2023-04-06T08:50:19;8.40;;;7.57;;
75506;SDS011;64086;43.220;27.878;2023-04-06T08:52:47;8.77;;;7.80;;
75506;SDS011;64086;43.220;27.878;2023-04-06T08:55:13;8.65;;;7.80;;
75506;SDS011;64086;43.220;27.878;2023-04-06T08:57:38;9.15;;;8.15;;
75506;SDS011;64086;43.220;27.878;2023-04-06T09:00:06;8.68;;;7.82;;
75506;SDS011;64086;43.220;27.878;2023-04-06T09:02:33;8.27;;;7.43;;
75506;SDS011;64086;43.220;27.878;2023-04-06T09:04:58;8.82;;;7.50;;
75506;SDS011;64086;43.220;27.878;2023-04-06T09:07:24;8.13;;;7.32;;
75506;SDS011;64086;43.220;27.878;2023-04-06T09:09:49;9.88;;;8.02;;
75506;SDS011;64086;43.220;27.878;2023-04-06T09:14:48;9.20;;;7.43;;
75506;SDS011;64086;43.220;27.878;2023-04-06T09:17:27;7.93;;;7.13;;
75506;SDS011;64086;43.220;27.878;2023-04-06T09:19:58;8.25;;;7.43;;
75506;SDS011;64086;43.220;27.878;2023-04-06T09:22:24;7.97;;;7.18;;
75506;SDS011;64086;43.220;27.878;2023-04-06T09:24:52;8.65;;;7.15;;
75506;SDS011;64086;43.220;27.878;2023-04-06T09:27:29;9.45;;;7.60;;
75506;SDS011;64086;43.220;27.878;2023-04-06T09:30:02;9.27;;;8.15;;
75506;SDS011;64086;43.220;27.878;2023-04-06T09:32:45;9.63;;;8.63;;
75506;SDS011;64086;43.220;27.878;2023-04-06T09:35:11;10.15;;;9.15;;
75506;SDS011;64086;43.220;27.878;2023-04-06T09:37:37;11.65;;;8.68;;
75506;SDS011;64086;43.220;27.878;2023-04-06T09:40:06;7.90;;;7.10;;
75506;SDS011;64086;43.220;27.878;2023-04-06T09:42:32;9.15;;;7.03;;
75506;SDS011;64086;43.220;27.878;2023-04-06T09:44:59;9.10;;;7.63;;
75506;SDS011;64086;43.220;27.878;2023-04-06T09:47:24;8.63;;;7.13;;
75506;SDS011;64086;43.220;27.878;2023-04-06T09:49:53;8.95;;;7.78;;
75506;SDS011;64086;43.220;27.878;2023-04-06T09:52:21;9.20;;;7.97;;
75506;SDS011;64086;43.220;27.878;2023-04-06T09:55:02;11.18;;;7.95;;
75506;SDS011;64086;43.220;27.878;2023-04-06T09:57:32;8.68;;;7.78;;
75506;SDS011;64086;43.220;27.878;2023-04-06T10:00:04;9.40;;;8.48;;
75506;SDS011;64086;43.220;27.878;2023-04-06T10:02:41;9.35;;;8.18;;
75506;SDS011;64086;43.220;27.878;2023-04-06T10:07:59;9.20;;;8.13;;
75506;SDS011;64086;43.220;27.878;2023-04-06T10:10:28;8.32;;;7.53;;
75506;SDS011;64086;43.220;27.878;2023-04-06T10:12:54;10.00;;;8.50;;
75506;SDS011;64086;43.220;27.878;2023-04-06T10:15:21;8.85;;;7.95;;
75506;SDS011;64086;43.220;27.878;2023-04-06T10:17:46;9.50;;;7.60;;
75506;SDS011;64086;43.220;27.878;2023-04-06T10:20:15;10.32;;;8.25;;
75506;SDS011;64086;43.220;27.878;2023-04-06T10:23:05;9.30;;;8.32;;
75506;SDS011;64086;43.220;27.878;2023-04-06T10:25:33;10.10;;;9.02;;
75506;SDS011;64086;43.220;27.878;2023-04-06T10:28:00;9.95;;;8.60;;
75506;SDS011;64086;43.220;27.878;2023-04-06T10:30:32;12.60;;;8.60;;
75506;SDS011;64086;43.220;27.878;2023-04-06T10:33:39;8.95;;;8.05;;
75506;SDS011;64086;43.220;27.878;2023-04-06T10:36:08;9.13;;;8.02;;
75506;SDS011;64086;43.220;27.878;2023-04-06T10:38:40;9.30;;;8.35;;
75506;SDS011;64086;43.220;27.878;2023-04-06T10:41:07;9.98;;;8.98;;
75506;SDS011;64086;43.220;27.878;2023-04-06T10:43:34;9.70;;;8.63;;
75506;SDS011;64086;43.220;27.878;2023-04-06T10:46:02;9.88;;;8.88;;
75506;SDS011;64086;43.220;27.878;2023-04-06T10:48:39;9.25;;;8.32;;
75506;SDS011;64086;43.220;27.878;2023-04-06T10:51:14;10.50;;;8.50;;
75506;SDS011;64086;43.220;27.878;2023-04-06T10:53:41;9.40;;;8.23;;
75506;SDS011;64086;43.220;27.878;2023-04-06T10:56:09;9.15;;;7.70;;
75506;SDS011;64086;43.220;27.878;2023-04-06T10:58:43;11.50;;;8.20;;
75506;SDS011;64086;43.220;27.878;2023-04-06T11:01:13;9.73;;;8.73;;
75506;SDS011;64086;43.220;27.878;2023-04-06T11:03:46;10.43;;;8.77;;
75506;SDS011;64086;43.220;27.878;2023-04-06T11:06:17;9.52;;;8.52;;
75506;SDS011;64086;43.220;27.878;2023-04-06T11:08:47;10.18;;;8.63;;
75506;SDS011;64086;43.220;27.878;2023-04-06T11:11:13;10.70;;;9.05;;
75506;SDS011;64086;43.220;27.878;2023-04-06T11:13:50;9.07;;;7.82;;
75506;SDS011;64086;43.220;27.878;2023-04-06T11:16:17;9.02;;;8.13;;
75506;SDS011;64086;43.220;27.878;2023-04-06T11:19:02;9.18;;;8.23;;
75506;SDS011;64086;43.220;27.878;2023-04-06T11:21:32;8.60;;;7.70;;
75506;SDS011;64086;43.220;27.878;2023-04-06T11:26:58;8.23;;;7.25;;
75506;SDS011;64086;43.220;27.878;2023-04-06T11:29:26;8.35;;;7.55;;
75506;SDS011;64086;43.220;27.878;2023-04-06T11:31:59;9.32;;;7.82;;
75506;SDS011;64086;43.220;27.878;2023-04-06T11:34:27;10.02;;;7.95;;
75506;SDS011;64086;43.220;27.878;2023-04-06T11:36:57;9.25;;;8.05;;
75506;SDS011;64086;43.220;27.878;2023-04-06T11:39:24;10.10;;;8.15;;
75506;SDS011;64086;43.220;27.878;2023-04-06T11:41:51;9.60;;;8.60;;
75506;SDS011;64086;43.220;27.878;2023-04-06T11:44:34;9.55;;;8.25;;
75506;SDS011;64086;43.220;27.878;2023-04-06T11:47:10;9.45;;;7.50;;
75506;SDS011;64086;43.220;27.878;2023-04-06T11:49:37;8.73;;;7.40;;
75506;SDS011;64086;43.220;27.878;2023-04-06T11:52:13;10.98;;;8.60;;
75506;SDS011;64086;43.220;27.878;2023-04-06T11:54:46;8.75;;;7.85;;
75506;SDS011;64086;43.220;27.878;2023-04-06T11:57:13;10.23;;;8.10;;
75506;SDS011;64086;43.220;27.878;2023-04-06T11:59:39;8.68;;;7.78;;
75506;SDS011;64086;43.220;27.878;2023-04-06T12:02:04;9.73;;;8.20;;
75506;SDS011;64086;43.220;27.878;2023-04-06T12:04:31;9.80;;;8.55;;
75506;SDS011;64086;43.220;27.878;2023-04-06T12:06:56;10.60;;;8.80;;
75506;SDS011;64086;43.220;27.878;2023-04-06T12:09:22;8.75;;;7.88;;
75506;SDS011;64086;43.220;27.878;2023-04-06T12:11:48;9.23;;;8.07;;
75506;SDS011;64086;43.220;27.878;2023-04-06T12:14:13;9.15;;;8.18;;
75506;SDS011;64086;43.220;27.878;2023-04-06T12:16:39;9.48;;;7.85;;
75506;SDS011;64086;43.220;27.878;2023-04-06T12:19:05;10.27;;;8.50;;
75506;SDS011;64086;43.220;27.878;2023-04-06T12:21:31;9.80;;;8.32;;
75506;SDS011;64086;43.220;27.878;2023-04-06T12:23:57;9.07;;;8.15;;
75506;SDS011;64086;43.220;27.878;2023-04-06T12:26:23;9.13;;;8.18;;
75506;SDS011;64086;43.220;27.878;2023-04-06T12:28:49;8.48;;;7.63;;
75506;SDS011;64086;43.220;27.878;2023-04-06T12:31:15;8.70;;;7.80;;
75506;SDS011;64086;43.220;27.878;2023-04-06T12:33:41;8.52;;;7.53;;
75506;SDS011;64086;43.220;27.878;2023-04-06T12:36:17;8.95;;;8.02;;
75506;SDS011;64086;43.220;27.878;2023-04-06T12:38:44;9.02;;;7.57;;
75506;SDS011;64086;43.220;27.878;2023-04-06T12:41:11;9.68;;;7.15;;
75506;SDS011;64086;43.220;27.878;2023-04-06T12:43:36;7.90;;;7.10;;
75506;SDS011;64086;43.220;27.878;2023-04-06T12:46:02;9.20;;;7.00;;
75506;SDS011;64086;43.220;27.878;2023-04-06T12:48:28;9.40;;;8.50;;
75506;SDS011;64086;43.220;27.878;2023-04-06T12:50:55;9.05;;;7.50;;
75506;SDS011;64086;43.220;27.878;2023-04-06T12:53:24;9.15;;;7.63;;
75506;SDS011;64086;43.220;27.878;2023-04-06T12:55:50;9.95;;;7.75;;
75506;SDS011;64086;43.220;27.878;2023-04-06T12:58:16;9.32;;;6.95;;
75506;SDS011;64086;43.220;27.878;2023-04-06T13:00:42;9.02;;;7.63;;
75506;SDS011;64086;43.220;27.878;2023-04-06T13:03:08;8.30;;;6.93;;
75506;SDS011;64086;43.220;27.878;2023-04-06T13:05:33;7.68;;;6.95;;
75506;SDS011;64086;43.220;27.878;2023-04-06T13:07:59;8.05;;;7.25;;
75506;SDS011;64086;43.220;27.878;2023-04-06T13:10:24;8.40;;;7.40;;
75506;SDS011;64086;43.220;27.878;2023-04-06T13:12:50;10.30;;;8.00;;
75506;SDS011;64086;43.220;27.878;2023-04-06T13:15:16;8.63;;;7.70;;
75506;SDS011;64086;43.220;27.878;2023-04-06T13:17:41;9.45;;;8.25;;
75506;SDS011;64086;43.220;27.878;2023-04-06T13:20:07;7.95;;;7.10;;
75506;SDS011;64086;43.220;27.878;2023-04-06T13:22:32;8.93;;;7.72;;
75506;SDS011;64086;43.220;27.878;2023-04-06T13:24:58;8.98;;;8.07;;
75506;SDS011;64086;43.220;27.878;2023-04-06T13:27:23;9.93;;;8.10;;
75506;SDS011;64086;43.220;27.878;2023-04-06T13:29:49;9.73;;;8.00;;
75506;SDS011;64086;43.220;27.878;2023-04-06T13:32:14;9.25;;;8.13;;
75506;SDS011;64086;43.220;27.878;2023-04-06T13:34:40;9.52;;;8.00;;
75506;SDS011;64086;43.220;27.878;2023-04-06T13:37:10;9.30;;;7.70;;
75506;SDS011;64086;43.220;27.878;2023-04-06T13:39:37;9.15;;;8.25;;
75506;SDS011;64086;43.220;27.878;2023-04-06T13:42:02;10.80;;;8.75;;
75506;SDS011;64086;43.220;27.878;2023-04-06T13:44:28;9.73;;;8.73;;
75506;SDS011;64086;43.220;27.878;2023-04-06T13:46:53;12.02;;;8.90;;
75506;SDS011;64086;43.220;27.878;2023-04-06T13:49:19;9.70;;;8.30;;
75506;SDS011;64086;43.220;27.878;2023-04-06T13:51:45;11.15;;;8.80;;
75506;SDS011;64086;43.220;27.878;2023-04-06T13:54:10;9.25;;;8.32;;
75506;SDS011;64086;43.220;27.878;2023-04-06T13:56:36;10.10;;;8.50;;
75506;SDS011;64086;43.220;27.878;2023-04-06T13:59:02;10.80;;;8.90;;
75506;SDS011;64086;43.220;27.878;2023-04-06T14:01:28;10.18;;;9.02;;
75506;SDS011;64086;43.220;27.878;2023-04-06T14:03:53;9.98;;;8.95;;
75506;SDS011;64086;43.220;27.878;2023-04-06T14:06:19;10.35;;;8.82;;
75506;SDS011;64086;43.220;27.878;2023-04-06T14:08:44;10.50;;;8.60;;
75506;SDS011;64086;43.220;27.878;2023-04-06T14:11:13;10.15;;;9.15;;
75506;SDS011;64086;43.220;27.878;2023-04-06T14:13:39;9.82;;;8.48;;
75506;SDS011;64086;43.220;27.878;2023-04-06T14:16:05;11.10;;;9.27;;
75506;SDS011;64086;43.220;27.878;2023-04-06T14:18:32;9.65;;;8.55;;
75506;SDS011;64086;43.220;27.878;2023-04-06T14:20:59;10.23;;;8.57;;
75506;SDS011;64086;43.220;27.878;2023-04-06T14:23:27;10.38;;;9.05;;
75506;SDS011;64086;43.220;27.878;2023-04-06T14:26:02;11.30;;;9.95;;
75506;SDS011;64086;43.220;27.878;2023-04-06T14:28:29;13.55;;;10.90;;
75506;SDS011;64086;43.220;27.878;2023-04-06T14:30:55;12.43;;;10.40;;